createdAt,value
2022-08-05T00:00:25.910Z,30.27
2022-08-05T00:02:57.551Z,31.67
2022-08-05T00:06:06.585Z,31.80
2022-08-05T00:08:35.410Z,28.13
2022-08-05T00:11:20.776Z,27.10
2022-08-05T00:13:59.613Z,26.08
2022-08-05T00:16:35.910Z,25.50
2022-08-05T00:19:24.790Z,27.65
2022-08-05T00:21:56.693Z,29.65
2022-08-05T00:27:04.742Z,24.75
2022-08-05T00:29:42.522Z,21.92
2022-08-05T00:32:15.297Z,20.83
2022-08-05T00:35:04.581Z,20.58
2022-08-05T00:37:52.964Z,19.95
2022-08-05T00:40:29.214Z,21.75
2022-08-05T00:43:07.557Z,19.88
2022-08-05T00:45:43.610Z,19.75
2022-08-05T00:48:18.267Z,19.98
2022-08-05T00:50:59.161Z,21.48
2022-08-05T00:53:59.974Z,20.70
2022-08-05T00:56:22.936Z,20.35
2022-08-05T00:58:54.960Z,19.35
2022-08-05T01:01:48.326Z,19.40
2022-08-05T01:04:20.185Z,18.40
2022-08-05T01:06:57.943Z,17.95
2022-08-05T01:09:30.589Z,17.80
2022-08-05T01:12:18.293Z,17.55
2022-08-05T01:15:35.434Z,17.50
2022-08-05T01:18:11.046Z,17.25
2022-08-05T01:21:04.047Z,16.95
2022-08-05T01:26:30.549Z,15.52
2022-08-05T01:29:42.955Z,15.55
2022-08-05T01:32:18.837Z,15.45
2022-08-05T01:34:59.094Z,15.90
2022-08-05T01:37:47.950Z,16.17
2022-08-05T01:40:27.928Z,15.43
2022-08-05T01:43:04.171Z,15.77
2022-08-05T01:45:43.041Z,15.52
2022-08-05T01:48:16.861Z,16.65
2022-08-05T01:50:51.030Z,16.42
2022-08-05T01:53:54.696Z,16.50
2022-08-05T01:58:10.722Z,16.08
2022-08-05T01:59:14.040Z,15.93
2022-08-05T02:01:49.323Z,16.05
2022-08-05T02:04:22.427Z,15.50
2022-08-05T02:06:55.633Z,15.15
2022-08-05T02:09:28.697Z,15.45
2022-08-05T02:12:10.986Z,15.30
2022-08-05T02:14:47.933Z,14.90
2022-08-05T02:18:31.380Z,14.23
2022-08-05T02:20:32.600Z,14.48
2022-08-05T02:23:13.537Z,13.82
2022-08-05T02:25:49.333Z,14.57
2022-08-05T02:28:36.456Z,14.35
2022-08-05T02:31:39.066Z,13.80
2022-08-05T02:34:15.338Z,13.32
2022-08-05T02:37:04.556Z,13.50
2022-08-05T02:39:41.317Z,11.65
2022-08-05T02:42:25.857Z,12.65
2022-08-05T02:45:00.815Z,11.80
2022-08-05T02:48:07.531Z,11.80
2022-08-05T02:50:29.685Z,11.43
2022-08-05T02:53:02.348Z,11.30
2022-08-05T02:55:53.983Z,10.63
2022-08-05T02:58:29.995Z,9.75
2022-08-05T03:01:05.427Z,9.55
2022-08-05T03:04:02.194Z,9.65
2022-08-05T03:06:55.219Z,9.88
2022-08-05T03:09:36.373Z,9.93
2022-08-05T03:12:10.500Z,8.93
2022-08-05T03:14:46.166Z,8.55
2022-08-05T03:17:20.428Z,8.48
2022-08-05T03:19:53.695Z,8.30
2022-08-05T03:22:32.310Z,8.30
2022-08-05T03:25:31.537Z,8.10
2022-08-05T03:28:00.515Z,7.82
2022-08-05T03:30:36.656Z,7.32
2022-08-05T03:33:09.905Z,7.03
2022-08-05T03:35:41.882Z,6.63
2022-08-05T03:38:14.894Z,6.55
2022-08-05T03:40:48.766Z,7.22
2022-08-05T03:44:09.269Z,6.60
2022-08-05T03:46:13.292Z,5.72
2022-08-05T03:48:45.330Z,6.47
2022-08-05T03:52:37.709Z,4.72
2022-08-05T03:55:54.082Z,5.03
2022-08-05T03:57:41.973Z,4.03
2022-08-05T04:00:17.578Z,4.18
2022-08-05T04:02:58.582Z,4.30
2022-08-05T04:05:34.439Z,4.25
2022-08-05T04:08:14.811Z,4.32
2022-08-05T04:11:04.959Z,4.43
2022-08-05T04:13:50.305Z,4.25
2022-08-05T04:16:24.382Z,3.72
2022-08-05T04:18:57.976Z,3.55
2022-08-05T04:22:10.286Z,3.90
2022-08-05T04:24:23.702Z,3.53
2022-08-05T04:26:59.050Z,3.97
2022-08-05T04:29:32.236Z,3.80
2022-08-05T04:32:04.371Z,3.40
2022-08-05T04:34:39.660Z,3.58
2022-08-05T04:37:14.749Z,3.28
2022-08-05T04:39:52.944Z,3.25
2022-08-05T04:42:27.285Z,3.33
2022-08-05T04:44:58.510Z,3.20
2022-08-05T04:47:42.921Z,3.10
2022-08-05T04:50:34.522Z,3.20
2022-08-05T04:53:12.087Z,3.20
2022-08-05T04:56:14.874Z,3.30
2022-08-05T04:58:36.935Z,3.38
2022-08-05T05:01:08.989Z,2.88
2022-08-05T05:06:39.000Z,3.58
2022-08-05T05:09:08.432Z,2.60
2022-08-05T05:11:52.921Z,3.05
2022-08-05T05:14:31.830Z,3.35
2022-08-05T05:17:07.569Z,2.85
2022-08-05T05:19:47.301Z,2.92
2022-08-05T05:22:23.924Z,3.03
2022-08-05T05:25:00.350Z,2.58
2022-08-05T05:27:45.741Z,2.88
2022-08-05T05:30:31.325Z,2.70
2022-08-05T05:33:14.097Z,2.83
2022-08-05T05:35:49.823Z,2.60
2022-08-05T05:38:27.441Z,2.38
2022-08-05T05:40:59.337Z,3.03
2022-08-05T05:43:58.071Z,2.92
2022-08-05T05:46:22.229Z,2.80
2022-08-05T05:48:53.595Z,2.55
2022-08-05T05:51:27.866Z,2.80
2022-08-05T05:54:00.571Z,2.72
2022-08-05T05:56:34.962Z,3.03
2022-08-05T05:59:09.561Z,3.30
2022-08-05T06:01:57.705Z,2.50
2022-08-05T06:04:29.580Z,2.10
2022-08-05T06:07:01.599Z,2.72
2022-08-05T06:10:01.556Z,3.33
2022-08-05T06:12:24.440Z,2.90
2022-08-05T06:14:58.851Z,2.92
2022-08-05T06:17:31.828Z,2.25
2022-08-05T06:20:23.386Z,2.85
2022-08-05T06:22:54.705Z,3.05
2022-08-05T06:26:13.878Z,2.72
2022-08-05T06:28:21.793Z,2.80
2022-08-05T06:30:53.379Z,2.85
2022-08-05T06:33:33.448Z,2.97
2022-08-05T06:36:17.947Z,3.10
2022-08-05T06:38:57.790Z,3.72
2022-08-05T06:41:29.665Z,3.78
2022-08-05T06:44:06.334Z,3.30
2022-08-05T06:46:37.661Z,3.70
2022-08-05T06:49:09.213Z,3.45
2022-08-05T06:51:43.835Z,3.50
2022-08-05T06:54:18.958Z,3.63
2022-08-05T06:56:54.736Z,3.78
2022-08-05T06:59:26.560Z,3.70
2022-08-05T07:01:59.091Z,3.13
2022-08-05T07:04:30.544Z,3.60
2022-08-05T07:07:02.072Z,3.13
2022-08-05T07:09:40.408Z,3.08
2022-08-05T07:12:34.274Z,3.28
2022-08-05T07:15:34.602Z,3.72
2022-08-05T07:18:27.040Z,3.13
2022-08-05T07:21:04.675Z,3.20
2022-08-05T07:23:37.257Z,3.05
2022-08-05T07:26:22.870Z,2.97
2022-08-05T07:28:57.203Z,3.30
2022-08-05T07:31:53.943Z,2.25
2022-08-05T07:34:28.361Z,3.03
2022-08-05T07:36:59.971Z,2.47
2022-08-05T07:40:04.362Z,2.20
2022-08-05T07:42:31.761Z,2.63
2022-08-05T07:45:07.756Z,1.73
2022-08-05T07:47:42.485Z,2.13
2022-08-05T07:50:16.541Z,2.25
2022-08-05T07:52:48.171Z,2.03
2022-08-05T07:56:05.004Z,1.65
2022-08-05T07:58:55.048Z,1.60
2022-08-05T08:01:06.137Z,1.63
2022-08-05T08:03:44.345Z,1.58
2022-08-05T08:06:17.399Z,1.80
2022-08-05T08:08:48.756Z,1.83
2022-08-05T08:11:27.574Z,1.65
2022-08-05T08:14:12.216Z,1.95
2022-08-05T08:16:51.416Z,1.85
2022-08-05T08:20:21.587Z,1.58
2022-08-05T08:22:17.640Z,1.50
2022-08-05T08:24:51.824Z,1.90
2022-08-05T08:27:24.159Z,1.45
2022-08-05T08:30:20.160Z,1.38
2022-08-05T08:33:13.935Z,1.27
2022-08-05T08:35:53.896Z,1.45
2022-08-05T08:38:37.687Z,1.52
2022-08-05T08:45:22.447Z,1.70
2022-08-05T08:46:35.059Z,1.25
2022-08-05T08:50:06.225Z,1.25
2022-08-05T08:52:14.622Z,1.48
2022-08-05T08:54:48.939Z,1.50
2022-08-05T08:57:21.166Z,1.33
2022-08-05T08:59:56.127Z,1.77
2022-08-05T09:02:29.720Z,1.50
2022-08-05T09:07:57.800Z,1.30
2022-08-05T09:10:30.697Z,1.48
2022-08-05T09:13:04.957Z,1.38
2022-08-05T09:15:37.315Z,1.38
2022-08-05T09:18:13.512Z,1.52
2022-08-05T09:20:47.330Z,1.20
2022-08-05T09:23:28.755Z,1.42
2022-08-05T09:26:22.220Z,1.83
2022-08-05T09:29:01.178Z,1.85
2022-08-05T09:32:40.631Z,2.00
2022-08-05T09:34:26.742Z,1.80
2022-08-05T09:36:59.449Z,1.80
2022-08-05T09:39:44.827Z,2.03
2022-08-05T09:42:28.171Z,2.60
2022-08-05T09:46:04.960Z,2.20
2022-08-05T09:48:01.436Z,2.15
2022-08-05T09:50:44.032Z,2.28
2022-08-05T09:53:25.763Z,2.00
2022-08-05T09:56:12.966Z,2.10
2022-08-05T09:58:57.340Z,2.20
2022-08-05T10:01:31.844Z,1.98
2022-08-05T10:04:10.519Z,1.88
2022-08-05T10:06:58.910Z,2.00
2022-08-05T10:09:45.023Z,2.15
2022-08-05T10:12:18.789Z,2.35
2022-08-05T10:15:20.868Z,1.85
2022-08-05T10:18:18.804Z,2.20
2022-08-05T10:20:58.618Z,2.22
2022-08-05T10:24:00.150Z,2.60
2022-08-05T10:26:33.853Z,2.33
2022-08-05T10:29:05.671Z,2.55
2022-08-05T10:32:55.378Z,2.50
2022-08-05T10:34:31.022Z,2.58
2022-08-05T10:37:03.825Z,2.20
2022-08-05T10:40:03.730Z,2.35
2022-08-05T10:42:43.686Z,2.42
2022-08-05T10:45:23.622Z,2.70
2022-08-05T10:48:36.087Z,2.58
2022-08-05T10:51:28.566Z,2.55
2022-08-05T10:54:05.762Z,2.50
2022-08-05T10:56:53.062Z,2.47
2022-08-05T11:00:03.644Z,2.65
2022-08-05T11:02:37.490Z,2.53
2022-08-05T11:05:13.609Z,2.38
2022-08-05T11:08:37.443Z,2.55
2022-08-05T11:11:52.417Z,2.55
2022-08-05T11:15:01.555Z,2.50
2022-08-05T11:17:58.034Z,2.85
2022-08-05T11:20:43.630Z,2.85
2022-08-05T11:23:57.700Z,2.42
2022-08-05T11:26:28.836Z,3.05
2022-08-05T11:29:13.232Z,2.85
2022-08-05T11:31:57.686Z,3.38
2022-08-05T11:34:51.372Z,2.67
2022-08-05T11:38:28.730Z,3.13
2022-08-05T11:41:03.385Z,3.20
2022-08-05T11:44:40.237Z,3.35
2022-08-05T11:47:10.502Z,3.70
2022-08-05T11:49:49.871Z,4.03
2022-08-05T11:52:29.193Z,4.43
2022-08-05T11:55:07.749Z,4.20
2022-08-05T11:58:10.690Z,4.32
2022-08-05T12:00:41.171Z,4.40
2022-08-05T12:03:29.374Z,4.55
2022-08-05T12:06:06.421Z,5.25
2022-08-05T12:08:55.547Z,6.15
2022-08-05T12:11:40.410Z,6.03
2022-08-05T12:14:13.185Z,5.93
2022-08-05T12:16:48.308Z,6.57
2022-08-05T12:20:26.092Z,7.15
2022-08-05T12:22:14.106Z,7.15
2022-08-05T12:24:54.492Z,7.82
2022-08-05T12:27:35.710Z,7.38
2022-08-05T12:30:32.185Z,7.40
2022-08-05T12:33:07.190Z,7.82
2022-08-05T12:35:55.087Z,7.95
2022-08-05T12:38:31.459Z,8.35
2022-08-05T12:41:02.959Z,7.95
2022-08-05T12:43:34.826Z,8.02
2022-08-05T12:46:29.130Z,7.70
2022-08-05T12:49:13.644Z,8.07
2022-08-05T12:52:12.603Z,8.55
2022-08-05T12:54:47.634Z,8.60
2022-08-05T12:57:23.407Z,8.80
2022-08-05T13:01:56.700Z,8.30
2022-08-05T13:02:50.968Z,9.20
2022-08-05T13:05:33.837Z,9.13
2022-08-05T13:08:09.981Z,8.80
2022-08-05T13:10:50.570Z,9.77
2022-08-05T13:14:04.814Z,9.68
2022-08-05T13:16:18.813Z,9.40
2022-08-05T13:18:58.732Z,9.73
2022-08-05T13:21:38.015Z,9.73
2022-08-05T13:24:44.881Z,10.65
2022-08-05T13:27:42.362Z,10.27
2022-08-05T13:30:34.137Z,10.82
2022-08-05T13:33:07.886Z,11.10
2022-08-05T13:35:47.190Z,10.20
2022-08-05T13:38:30.197Z,11.00
2022-08-05T13:41:02.920Z,10.93
2022-08-05T13:43:45.064Z,10.60
2022-08-05T13:46:43.631Z,11.10
2022-08-05T13:51:48.897Z,10.25
2022-08-05T13:54:24.986Z,10.43
2022-08-05T13:56:57.210Z,9.40
2022-08-05T13:59:30.758Z,9.60
2022-08-05T14:02:03.065Z,8.68
2022-08-05T14:05:00.724Z,8.35
2022-08-05T14:07:59.994Z,8.93
2022-08-05T14:10:32.563Z,8.82
2022-08-05T14:13:04.443Z,7.10
2022-08-05T14:16:09.286Z,7.90
2022-08-05T14:18:28.906Z,7.00
2022-08-05T14:21:00.331Z,7.05
2022-08-05T14:23:51.606Z,7.10
2022-08-05T14:26:35.692Z,6.65
2022-08-05T14:29:16.452Z,6.97
2022-08-05T14:32:02.803Z,6.30
2022-08-05T14:34:40.718Z,5.93
2022-08-05T14:37:13.287Z,6.00
2022-08-05T14:39:49.923Z,6.25
2022-08-05T14:42:28.624Z,5.80
2022-08-05T14:45:00.524Z,5.32
2022-08-05T14:48:03.961Z,5.45
2022-08-05T14:50:25.196Z,6.40
2022-08-05T14:52:58.526Z,5.30
2022-08-05T14:55:39.637Z,5.72
2022-08-05T14:58:13.879Z,5.82
2022-08-05T15:00:59.253Z,4.65
2022-08-05T15:03:39.156Z,5.88
2022-08-05T15:06:15.534Z,5.22
2022-08-05T15:09:01.072Z,5.10
2022-08-05T15:11:51.539Z,5.30
2022-08-05T15:14:35.753Z,4.68
2022-08-05T15:17:45.498Z,4.55
2022-08-05T15:20:09.789Z,4.85
2022-08-05T15:22:52.144Z,4.80
2022-08-05T15:25:51.316Z,5.03
2022-08-05T15:28:19.134Z,4.32
2022-08-05T15:30:53.612Z,5.05
2022-08-05T15:34:04.545Z,4.60
2022-08-05T15:36:24.507Z,4.37
2022-08-05T15:41:00.836Z,4.18
2022-08-05T15:41:57.267Z,5.07
2022-08-05T15:44:31.037Z,4.50
2022-08-05T15:47:03.665Z,4.95
2022-08-05T15:49:48.203Z,4.80
2022-08-05T15:52:53.871Z,4.15
2022-08-05T15:55:25.055Z,4.78
2022-08-05T15:58:16.518Z,4.00
2022-08-05T16:00:50.979Z,4.13
2022-08-05T16:03:44.957Z,4.85
2022-08-05T16:06:22.786Z,4.47
2022-08-05T16:08:55.486Z,4.18
2022-08-05T16:11:42.430Z,3.90
2022-08-05T16:14:17.280Z,4.18
2022-08-05T16:16:49.225Z,4.78
2022-08-05T16:20:02.909Z,4.80
2022-08-05T16:22:15.304Z,4.72
2022-08-05T16:24:51.232Z,4.80
2022-08-05T16:27:32.332Z,4.18
2022-08-05T16:30:23.247Z,3.95
2022-08-05T16:32:57.336Z,4.45
2022-08-05T16:35:32.471Z,4.30
2022-08-05T16:38:18.515Z,4.30
2022-08-05T16:41:01.879Z,4.30
2022-08-05T16:43:56.327Z,4.38
2022-08-05T16:46:28.564Z,4.20
2022-08-05T16:49:00.062Z,4.20
2022-08-05T16:51:42.400Z,4.07
2022-08-05T16:54:28.602Z,3.78
2022-08-05T16:57:01.993Z,4.00
2022-08-05T16:59:33.746Z,3.50
2022-08-05T17:02:25.342Z,4.28
2022-08-05T17:04:59.494Z,3.85
2022-08-05T17:07:43.824Z,4.03
2022-08-05T17:10:22.409Z,3.67
2022-08-05T17:12:58.126Z,4.45
2022-08-05T17:15:48.937Z,4.03
2022-08-05T17:18:21.061Z,4.00
2022-08-05T17:20:53.262Z,4.07
2022-08-05T17:24:05.887Z,3.83
2022-08-05T17:26:17.468Z,3.70
2022-08-05T17:31:24.312Z,4.22
2022-08-05T17:34:12.103Z,4.03
2022-08-05T17:36:49.472Z,3.90
2022-08-05T17:39:23.972Z,3.92
2022-08-05T17:42:20.234Z,4.18
2022-08-05T17:44:50.328Z,3.83
2022-08-05T17:47:24.206Z,4.35
2022-08-05T17:50:04.116Z,3.83
2022-08-05T17:52:53.391Z,3.95
2022-08-05T17:55:27.208Z,3.75
2022-08-05T17:58:01.924Z,4.05
2022-08-05T18:00:34.185Z,4.15
2022-08-05T18:03:07.992Z,4.50
2022-08-05T18:05:40.500Z,3.88
2022-08-05T18:08:12.826Z,3.83
2022-08-05T18:10:44.030Z,4.20
2022-08-05T18:13:15.937Z,3.90
2022-08-05T18:15:47.211Z,4.47
2022-08-05T18:18:20.617Z,4.25
2022-08-05T18:23:26.159Z,3.88
2022-08-05T18:26:02.335Z,3.65
2022-08-05T18:28:34.145Z,3.72
2022-08-05T18:31:07.472Z,3.38
2022-08-05T18:33:47.281Z,4.15
2022-08-05T18:36:27.852Z,4.03
2022-08-05T18:38:59.652Z,4.25
2022-08-05T18:41:57.572Z,3.95
2022-08-05T18:44:33.118Z,4.18
2022-08-05T18:47:07.334Z,4.18
2022-08-05T18:49:57.950Z,4.25
2022-08-05T18:55:22.928Z,4.32
2022-08-05T18:58:03.027Z,4.07
2022-08-05T19:00:35.374Z,4.55
2022-08-05T19:03:06.767Z,4.90
2022-08-05T19:06:11.209Z,4.90
2022-08-05T19:08:30.075Z,4.60
2022-08-05T19:11:05.205Z,4.72
2022-08-05T19:13:38.847Z,5.13
2022-08-05T19:16:25.324Z,4.47
2022-08-05T19:19:01.102Z,4.93
2022-08-05T19:21:34.573Z,5.68
2022-08-05T19:24:12.589Z,5.43
2022-08-05T19:26:54.691Z,4.97
2022-08-05T19:29:36.470Z,5.57
2022-08-05T19:32:11.380Z,5.60
2022-08-05T19:34:54.661Z,5.32
2022-08-05T19:37:35.212Z,5.50
2022-08-05T19:43:04.877Z,5.88
2022-08-05T19:45:37.332Z,5.50
2022-08-05T19:48:14.541Z,5.80
2022-08-05T19:50:46.229Z,5.93
2022-08-05T19:53:17.536Z,6.10
2022-08-05T19:56:14.546Z,6.45
2022-08-05T20:01:28.183Z,6.03
2022-08-05T20:04:00.522Z,6.95
2022-08-05T20:06:37.570Z,6.30
2022-08-05T20:09:17.300Z,6.72
2022-08-05T20:11:48.739Z,6.87
2022-08-05T20:14:27.065Z,7.10
2022-08-05T20:17:00.873Z,6.57
2022-08-05T20:19:36.217Z,6.93
2022-08-05T20:22:19.258Z,6.75
2022-08-05T20:24:51.953Z,6.65
2022-08-05T20:27:41.550Z,6.35
2022-08-05T20:30:14.054Z,6.90
2022-08-05T20:32:49.744Z,8.15
2022-08-05T20:35:22.846Z,6.72
2022-08-05T20:38:05.610Z,6.72
2022-08-05T20:40:38.446Z,7.35
2022-08-05T20:43:14.635Z,7.43
2022-08-05T20:45:56.178Z,6.95
2022-08-05T20:48:28.475Z,6.82
2022-08-05T20:50:59.930Z,7.03
2022-08-05T20:53:40.883Z,7.43
2022-08-05T20:56:12.584Z,7.72
2022-08-05T20:58:45.028Z,7.50
2022-08-05T21:01:16.376Z,7.00
2022-08-05T21:03:48.855Z,7.82
2022-08-05T21:06:27.876Z,7.38
2022-08-05T21:09:00.421Z,7.07
2022-08-05T21:12:10.242Z,8.40
2022-08-05T21:14:23.673Z,7.50
2022-08-05T21:16:57.952Z,7.82
2022-08-05T21:19:29.203Z,7.50
2022-08-05T21:22:23.346Z,7.80
2022-08-05T21:24:58.362Z,7.88
2022-08-05T21:27:38.873Z,7.38
2022-08-05T21:30:17.307Z,7.75
2022-08-05T21:32:49.560Z,7.80
2022-08-05T21:35:30.095Z,7.53
2022-08-05T21:38:14.875Z,8.07
2022-08-05T21:40:48.630Z,7.82
2022-08-05T21:43:24.882Z,8.05
2022-08-05T21:46:00.187Z,7.75
2022-08-05T21:48:32.030Z,6.93
2022-08-05T21:51:25.277Z,8.55
2022-08-05T21:53:59.488Z,8.10
2022-08-05T21:56:35.361Z,7.93
2022-08-05T21:59:22.549Z,7.50
2022-08-05T22:01:56.897Z,8.30
2022-08-05T22:04:28.355Z,7.70
2022-08-05T22:07:00.145Z,7.53
2022-08-05T22:09:46.068Z,8.07
2022-08-05T22:12:18.691Z,7.57
2022-08-05T22:14:58.507Z,8.45
2022-08-05T22:17:31.226Z,6.65
2022-08-05T22:20:16.417Z,7.40
2022-08-05T22:23:17.091Z,7.75
2022-08-05T22:26:14.952Z,7.13
2022-08-05T22:28:47.005Z,7.60
2022-08-05T22:31:21.339Z,7.47
2022-08-05T22:33:57.134Z,8.27
2022-08-05T22:36:31.811Z,7.82
2022-08-05T22:39:09.078Z,7.57
2022-08-05T22:42:09.875Z,7.50
2022-08-05T22:44:32.984Z,8.30
2022-08-05T22:47:06.602Z,8.38
2022-08-05T22:50:19.839Z,7.43
2022-08-05T22:52:32.345Z,7.80
2022-08-05T22:55:19.021Z,8.57
2022-08-05T22:57:55.598Z,7.93
2022-08-05T23:00:29.810Z,7.78
2022-08-05T23:03:04.188Z,8.73
2022-08-05T23:05:36.413Z,8.50
2022-08-05T23:08:11.430Z,8.57
2022-08-05T23:10:44.412Z,8.25
2022-08-05T23:13:15.747Z,8.93
2022-08-05T23:15:50.329Z,8.73
2022-08-05T23:18:22.930Z,8.35
2022-08-05T23:20:54.446Z,10.02
2022-08-05T23:23:25.872Z,9.70
2022-08-05T23:26:01.255Z,9.65
2022-08-05T23:28:33.975Z,10.10
2022-08-05T23:31:17.311Z,9.65
2022-08-05T23:34:03.781Z,10.10
2022-08-05T23:36:44.398Z,10.35
2022-08-05T23:39:23.748Z,11.15
2022-08-05T23:42:05.089Z,11.77
2022-08-05T23:44:40.340Z,11.05
2022-08-05T23:47:15.497Z,11.27
2022-08-05T23:49:48.329Z,11.35
2022-08-05T23:52:35.874Z,12.98
2022-08-05T23:55:10.928Z,15.18
2022-08-05T23:57:44.381Z,14.93
